You are listening to:
KTUS Del/Gnd/Twr/App/KDMA - Tucson, Arizona, United States

KTUS 041853Z 13009KT 10SM OVC047 17/15 A3014 RMK AO2 RAE46 SLP179 P0002 T01720150

If stream doesn't start automatically press the play button
If stream stops then reload player then press play